Time;durP1;ratioP1;P1;durP2;ratioP2;P2;SDS_P1;SDS_P2;PMS_P1;PMS_P2;Temp;Humidity;BMP_temperature;BMP_pressure;BME280_temperature;BME280_humidity;BME280_pressure;Samples;Min_cycle;Max_cycle;Signal;HPM_P1;HPM_P2
2023/05/09 00:01:31;;;;;;;53.38;28.38;;;;;;;14.91;100.00;101614.13;5051591;28;20503;-53
2023/05/09 00:03:59;;;;;;;51.97;29.50;;;;;;;14.92;100.00;101613.19;5050359;28;20131;-53
2023/05/09 00:06:28;;;;;;;58.95;30.52;;;;;;;14.91;100.00;101608.84;5045076;28;20056;-51
2023/05/09 00:08:56;;;;;;;54.95;29.35;;;;;;;14.91;100.00;101617.63;5050550;28;20045;-53
2023/05/09 00:11:25;;;;;;;50.70;28.58;;;;;;;14.90;100.00;101613.25;5055441;28;20107;-53
2023/05/09 00:13:54;;;;;;;53.80;30.20;;;;;;;14.86;100.00;101609.16;5054760;28;20059;-53
2023/05/09 00:16:24;;;;;;;59.95;31.90;;;;;;;14.83;100.00;101606.72;5050965;28;20056;-55
2023/05/09 00:18:52;;;;;;;57.10;31.85;;;;;;;14.82;100.00;101607.66;5051952;28;20053;-52
2023/05/09 00:21:20;;;;;;;58.20;31.10;;;;;;;14.82;100.00;101602.38;5054741;28;20057;-53
2023/05/09 00:23:48;;;;;;;60.97;31.75;;;;;;;14.78;100.00;101603.53;5054961;28;20450;-51
2023/05/09 00:26:17;;;;;;;55.53;29.88;;;;;;;14.80;100.00;101593.72;5050729;28;20350;-54
2023/05/09 00:28:46;;;;;;;52.22;29.60;;;;;;;14.80;100.00;101589.25;5050765;28;20064;-52
2023/05/09 00:31:14;;;;;;;58.35;30.55;;;;;;;14.81;100.00;101579.53;5054856;28;20040;-51
2023/05/09 00:33:43;;;;;;;58.58;31.95;;;;;;;14.83;100.00;101570.50;5054609;28;20045;-54
2023/05/09 00:36:11;;;;;;;60.60;31.10;;;;;;;14.83;100.00;101569.66;5054943;28;20507;-54
2023/05/09 00:38:39;;;;;;;55.47;31.52;;;;;;;14.85;100.00;101570.41;5054709;28;20075;-53
2023/05/09 00:41:07;;;;;;;57.50;31.52;;;;;;;14.89;100.00;101563.94;5054819;28;20045;-53
2023/05/09 00:43:35;;;;;;;61.70;32.75;;;;;;;14.89;100.00;101563.94;5053704;28;20092;-54
2023/05/09 00:46:04;;;;;;;52.45;29.05;;;;;;;14.87;100.00;101566.69;5049803;28;20052;-55
2023/05/09 00:48:32;;;;;;;55.38;29.60;;;;;;;14.87;100.00;101564.03;5051087;28;20060;-61
2023/05/09 00:51:01;;;;;;;57.40;31.30;;;;;;;14.86;100.00;101558.84;5054453;28;20053;-62
2023/05/09 00:53:29;;;;;;;55.15;31.23;;;;;;;14.91;100.00;101558.53;5050346;28;20391;-62
2023/05/09 00:56:00;;;;;;;57.35;30.35;;;;;;;14.87;100.00;101553.44;5050226;28;20111;-62
2023/05/09 00:58:28;;;;;;;58.50;31.40;;;;;;;14.88;100.00;101554.28;5052676;28;20052;-63
2023/05/09 01:00:56;;;;;;;54.75;31.17;;;;;;;14.90;100.00;101555.00;5049415;28;20052;-62
2023/05/09 01:03:26;;;;;;;54.97;30.30;;;;;;;14.82;100.00;101546.78;5050389;28;20041;-52
2023/05/09 01:05:58;;;;;;;57.53;30.83;;;;;;;14.84;100.00;101551.00;5048203;28;20057;-53
2023/05/09 01:08:41;;;;;;;55.78;29.40;;;;;;;14.84;100.00;101553.66;5054520;28;21186;-55
2023/05/09 01:11:18;;;;;;;55.45;30.35;;;;;;;14.85;100.00;101554.50;5051475;28;20558;-54
2023/05/09 01:13:57;;;;;;;57.03;29.48;;;;;;;14.88;100.00;101538.41;5049460;28;20369;-55
2023/05/09 01:16:34;;;;;;;59.08;29.80;;;;;;;14.90;100.00;101536.47;5053020;28;20049;-53
2023/05/09 01:19:14;;;;;;;54.92;30.52;;;;;;;14.88;100.00;101526.00;5053632;28;20118;-52
2023/05/09 01:21:48;;;;;;;54.47;30.80;;;;;;;14.77;100.00;101520.63;5053690;28;20065;-52
2023/05/09 01:24:37;;;;;;;55.88;30.45;;;;;;;14.80;100.00;101523.06;5049838;28;20045;-52
2023/05/09 01:27:43;;;;;;;56.15;29.98;;;;;;;14.85;100.00;101520.94;5048670;28;20541;-52
2023/05/09 01:30:14;;;;;;;53.63;30.95;;;;;;;14.89;100.00;101518.91;5049277;28;20084;-53
2023/05/09 01:32:46;;;;;;;57.30;29.48;;;;;;;14.86;100.00;101512.03;5052188;28;20053;-53
2023/05/09 01:35:15;;;;;;;51.80;29.15;;;;;;;14.85;100.00;101512.16;5053654;28;20373;-53
2023/05/09 01:37:49;;;;;;;52.08;29.00;;;;;;;14.87;100.00;101512.88;5053780;28;20136;-53
2023/05/09 01:40:20;;;;;;;56.33;29.55;;;;;;;14.85;100.00;101510.34;5051794;28;20397;-54
2023/05/09 01:42:52;;;;;;;54.28;28.70;;;;;;;14.86;100.00;101512.03;5047979;28;20033;-52
2023/05/09 01:45:23;;;;;;;50.53;30.00;;;;;;;14.87;100.00;101504.91;5051422;28;20515;-53
2023/05/09 01:47:53;;;;;;;53.40;29.95;;;;;;;14.82;100.00;101501.75;5053463;28;20087;-53
2023/05/09 01:50:23;;;;;;;55.10;30.88;;;;;;;14.79;100.00;101497.56;5053438;28;20041;-52
2023/05/09 01:52:55;;;;;;;59.08;31.33;;;;;;;14.76;100.00;101507.50;5050799;28;20064;-53
2023/05/09 01:55:26;;;;;;;54.53;32.03;;;;;;;14.77;100.00;101507.41;5049164;28;20526;-53
2023/05/09 01:57:55;;;;;;;55.75;31.17;;;;;;;14.75;100.00;101505.81;5047985;28;20587;-61
2023/05/09 02:00:25;;;;;;;59.92;31.30;;;;;;;14.71;100.00;101507.81;5053013;28;20049;-62
2023/05/09 02:02:55;;;;;;;56.88;31.85;;;;;;;14.74;100.00;101504.13;5053513;28;20041;-62
2023/05/09 02:05:28;;;;;;;58.05;31.80;;;;;;;14.73;100.00;101497.16;5052914;28;20056;-61
2023/05/09 02:07:57;;;;;;;55.83;30.65;;;;;;;14.76;100.00;101499.56;5053026;28;20508;-61
2023/05/09 02:10:29;;;;;;;61.22;31.52;;;;;;;14.77;100.00;101493.31;5048892;28;20122;-62
2023/05/09 02:12:57;;;;;;;56.22;30.35;;;;;;;14.76;100.00;101481.03;5048238;28;20049;-62
2023/05/09 02:15:27;;;;;;;57.30;32.20;;;;;;;14.78;100.00;101481.75;5052984;28;20427;-62
2023/05/09 02:17:55;;;;;;;62.15;32.63;;;;;;;14.81;100.00;101484.19;5051229;28;20041;-62
2023/05/09 02:20:23;;;;;;;57.47;31.13;;;;;;;14.74;100.00;101482.94;5047209;28;20457;-62
2023/05/09 02:22:52;;;;;;;61.20;30.83;;;;;;;14.69;100.00;101491.22;5048007;28;20144;-62
2023/05/09 02:25:20;;;;;;;59.20;31.10;;;;;;;14.66;100.00;101487.00;5047620;28;20061;-61
2023/05/09 02:27:48;;;;;;;62.92;32.13;;;;;;;14.67;100.00;101475.47;5051457;28;20044;-62
2023/05/09 02:30:23;;;;;;;61.40;32.78;;;;;;;14.56;100.00;101475.38;5048190;28;20056;-62
2023/05/09 02:32:59;;;;;;;65.32;31.73;;;;;;;14.59;100.00;101479.56;5050712;28;20447;-63
2023/05/09 02:35:28;;;;;;;59.72;32.33;;;;;;;14.58;100.00;101469.97;5052179;28;20047;-62
2023/05/09 02:37:59;;;;;;;58.83;32.83;;;;;;;14.66;100.00;101472.94;5048131;28;20049;-62
2023/05/09 02:40:29;;;;;;;62.97;33.35;;;;;;;14.64;100.00;101462.44;5048467;28;20056;-62
2023/05/09 02:42:57;;;;;;;60.70;33.28;;;;;;;14.65;100.00;101463.28;5049123;28;20055;-63
2023/05/09 02:45:26;;;;;;;60.97;31.30;;;;;;;14.64;100.00;101461.59;5052285;28;20057;-62
2023/05/09 02:47:55;;;;;;;64.93;34.22;;;;;;;14.58;100.00;101465.50;5052356;28;20106;-62
2023/05/09 02:50:23;;;;;;;66.30;34.50;;;;;;;14.58;100.00;101467.31;5052229;28;20057;-62
2023/05/09 02:52:52;;;;;;;63.55;32.60;;;;;;;14.54;100.00;101461.38;5051092;28;20079;-62
2023/05/09 02:55:20;;;;;;;59.47;30.67;;;;;;;14.56;100.00;101467.44;5048011;28;20045;-62
2023/05/09 02:57:48;;;;;;;61.92;33.28;;;;;;;14.53;100.00;101464.97;5049331;28;20049;-62
2023/05/09 03:00:25;;;;;;;65.85;32.30;;;;;;;14.47;100.00;101460.97;5052427;28;20057;-62
2023/05/09 03:02:55;;;;;;;63.78;33.38;;;;;;;14.42;100.00;101459.63;5047819;28;20098;-61
2023/05/09 03:05:23;;;;;;;61.97;33.38;;;;;;;14.43;100.00;101456.03;5047551;28;20118;-61
2023/05/09 03:07:51;;;;;;;60.88;32.97;;;;;;;14.43;100.00;101453.38;5048288;28;20481;-62
2023/05/09 03:10:20;;;;;;;59.67;33.53;;;;;;;14.43;100.00;101443.63;5047841;28;20553;-62
2023/05/09 03:12:48;;;;;;;63.95;34.25;;;;;;;14.44;100.00;101444.47;5046857;28;20049;-62
2023/05/09 03:15:16;;;;;;;63.15;33.13;;;;;;;14.45;100.00;101446.16;5047348;28;20045;-62
2023/05/09 03:17:45;;;;;;;58.75;31.77;;;;;;;14.43;100.00;101443.63;5048515;28;20119;-62
2023/05/09 03:20:15;;;;;;;66.15;33.70;;;;;;;14.40;100.00;101437.69;5051797;28;20048;-62
2023/05/09 03:22:43;;;;;;;63.80;33.38;;;;;;;14.38;100.00;101440.47;5049183;28;20764;-62
2023/05/09 03:25:14;;;;;;;62.15;32.45;;;;;;;14.34;100.00;101437.22;5047568;28;20073;-62
2023/05/09 03:27:43;;;;;;;74.50;35.95;;;;;;;14.28;100.00;101439.44;5049713;28;20044;-62
2023/05/09 03:30:12;;;;;;;69.97;35.35;;;;;;;14.31;100.00;101433.94;5051017;28;20045;-62
2023/05/09 03:32:40;;;;;;;77.60;37.75;;;;;;;14.29;100.00;101433.19;5047386;28;20163;-61
2023/05/09 03:35:09;;;;;;;70.05;35.90;;;;;;;14.31;100.00;101434.75;5045910;28;20127;-61
2023/05/09 03:37:41;;;;;;;70.05;35.47;;;;;;;14.33;100.00;101430.22;5047449;28;20441;-62
2023/05/09 03:40:09;;;;;;;62.25;33.78;;;;;;;14.32;100.00;101427.69;5050841;28;20095;-63
2023/05/09 03:42:37;;;;;;;66.68;35.03;;;;;;;14.33;100.00;101427.56;5052421;28;20049;-62
2023/05/09 03:45:06;;;;;;;69.53;35.38;;;;;;;14.33;100.00;101426.75;5054194;28;20049;-62
2023/05/09 03:47:37;;;;;;;70.03;36.40;;;;;;;14.36;100.00;101424.69;5051135;28;20507;-62
2023/05/09 03:50:07;;;;;;;67.22;35.08;;;;;;;14.37;100.00;101423.75;5050635;28;20139;-62
2023/05/09 03:52:36;;;;;;;68.00;34.65;;;;;;;14.33;100.00;101421.44;5049822;28;20086;-63
2023/05/09 03:55:06;;;;;;;68.18;35.05;;;;;;;14.31;100.00;101423.34;5054559;28;20099;-61
2023/05/09 03:57:35;;;;;;;69.20;34.05;;;;;;;14.28;100.00;101411.19;5050716;28;20048;-61
2023/05/09 04:00:05;;;;;;;66.90;34.95;;;;;;;14.28;100.00;101415.63;5050938;28;20045;-62
2023/05/09 04:02:33;;;;;;;64.97;33.22;;;;;;;14.27;100.00;101411.28;5053788;28;20045;-62
2023/05/09 04:05:02;;;;;;;67.53;33.38;;;;;;;14.22;100.00;101416.06;5055439;28;20557;-62
2023/05/09 04:07:30;;;;;;;64.85;33.33;;;;;;;14.26;100.00;101407.81;5055243;28;20388;-62
2023/05/09 04:09:59;;;;;;;66.60;35.97;;;;;;;14.23;100.00;101400.06;5055323;28;20064;-62
2023/05/09 04:12:28;;;;;;;64.18;34.97;;;;;;;14.23;100.00;101397.44;5053925;28;20040;-62
2023/05/09 04:14:56;;;;;;;66.88;35.83;;;;;;;14.26;100.00;101393.72;5055400;28;20099;-62
2023/05/09 04:17:24;;;;;;;64.07;33.85;;;;;;;14.19;100.00;101393.31;5055023;28;20045;-62
2023/05/09 04:19:52;;;;;;;66.93;35.63;;;;;;;14.16;100.00;101388.25;5054774;28;20041;-62
2023/05/09 04:22:21;;;;;;;67.75;36.40;;;;;;;14.24;100.00;101387.72;5054876;28;20060;-63
2023/05/09 04:24:49;;;;;;;62.92;35.22;;;;;;;14.22;100.00;101387.81;5054963;28;20041;-62
2023/05/09 04:27:17;;;;;;;64.05;34.80;;;;;;;14.20;100.00;101395.84;5052325;28;20050;-62
2023/05/09 04:29:48;;;;;;;60.35;33.90;;;;;;;14.19;100.00;101398.59;5050128;28;20053;-62
2023/05/09 04:32:16;;;;;;;59.38;32.50;;;;;;;14.12;100.00;101392.91;5050570;28;20064;-62
2023/05/09 04:34:44;;;;;;;60.03;33.25;;;;;;;14.08;100.00;101396.72;5054282;28;20519;-62
2023/05/09 04:37:13;;;;;;;62.90;32.28;;;;;;;14.14;100.00;101395.47;5050356;28;20136;-63
2023/05/09 04:39:41;;;;;;;55.40;32.05;;;;;;;14.17;100.00;101395.25;5052245;28;20053;-62
2023/05/09 04:42:09;;;;;;;56.50;31.25;;;;;;;14.17;100.00;101395.25;5054781;28;20052;-62
2023/05/09 04:44:37;;;;;;;59.00;31.90;;;;;;;14.09;100.00;101394.94;5054754;28;20032;-62
2023/05/09 04:47:07;;;;;;;56.80;30.88;;;;;;;14.14;100.00;101390.19;5054503;28;20045;-62
2023/05/09 04:49:35;;;;;;;51.65;28.92;;;;;;;14.13;100.00;101384.03;5049570;28;20538;-62
2023/05/09 04:52:03;;;;;;;51.40;30.45;;;;;;;14.21;100.00;101388.78;5051459;28;20053;-62
2023/05/09 04:54:31;;;;;;;48.92;29.73;;;;;;;14.13;100.00;101380.56;5054254;28;20075;-61
2023/05/09 04:56:59;;;;;;;50.03;28.70;;;;;;;14.13;100.00;101369.97;5054621;28;20049;-62
2023/05/09 04:59:44;;;;;;;50.72;29.85;;;;;;;14.12;100.00;101377.03;5054425;28;20057;-63
2023/05/09 05:02:13;;;;;;;50.33;29.00;;;;;;;14.20;100.00;101373.84;5052864;28;20045;-63
2023/05/09 05:04:41;;;;;;;48.97;29.45;;;;;;;14.17;100.00;101371.44;5048765;28;20064;-62
2023/05/09 05:07:09;;;;;;;49.35;29.35;;;;;;;14.19;100.00;101366.88;5052618;28;20045;-63
2023/05/09 05:09:37;;;;;;;52.70;29.92;;;;;;;14.20;100.00;101366.75;5054381;28;20235;-62
2023/05/09 05:12:09;;;;;;;51.33;30.25;;;;;;;14.25;100.00;101358.50;5054436;28;20052;-62
2023/05/09 05:14:37;;;;;;;53.53;31.02;;;;;;;14.25;100.00;101362.94;5054058;28;20057;-62
2023/05/09 05:17:05;;;;;;;49.13;29.67;;;;;;;14.26;100.00;101362.84;5054234;28;20500;-62
2023/05/09 05:19:35;;;;;;;50.97;31.10;;;;;;;14.30;100.00;101359.00;5050180;28;20052;-62
2023/05/09 05:22:03;;;;;;;49.88;29.20;;;;;;;14.27;100.00;101356.56;5049396;28;20068;-62
2023/05/09 05:24:31;;;;;;;48.25;29.67;;;;;;;14.25;100.00;101350.56;5053887;28;20403;-62
2023/05/09 05:26:59;;;;;;;52.65;29.52;;;;;;;14.24;100.00;101351.50;5053938;28;20076;-61
2023/05/09 05:29:30;;;;;;;49.15;27.88;;;;;;;14.28;100.00;101342.41;5053845;28;20088;-62
2023/05/09 05:31:58;;;;;;;48.85;30.15;;;;;;;14.23;100.00;101344.53;5053905;28;20045;-62
2023/05/09 05:34:27;;;;;;;50.55;29.10;;;;;;;14.24;100.00;101348.88;5053782;28;20037;-62
2023/05/09 05:36:56;;;;;;;47.47;28.48;;;;;;;14.23;100.00;101339.22;5053564;28;20049;-61
2023/05/09 05:39:24;;;;;;;49.00;27.83;;;;;;;14.29;100.00;101340.59;5053900;28;20049;-60
2023/05/09 05:41:52;;;;;;;49.28;29.08;;;;;;;14.33;100.00;101339.44;5050951;28;20102;-61
2023/05/09 05:44:20;;;;;;;51.03;28.48;;;;;;;14.32;100.00;101335.09;5049541;28;20049;-61
2023/05/09 05:46:49;;;;;;;49.10;29.60;;;;;;;14.34;100.00;101331.38;5049040;28;20135;-54
2023/05/09 05:49:17;;;;;;;44.33;27.10;;;;;;;14.37;100.00;101328.50;5053131;28;20140;-53
2023/05/09 05:51:45;;;;;;;47.28;28.20;;;;;;;14.33;100.00;101323.56;5052329;28;20148;-54
2023/05/09 05:54:14;;;;;;;47.65;26.98;;;;;;;14.35;100.00;101317.16;5051727;28;20118;-55
2023/05/09 05:56:45;;;;;;;47.00;27.70;;;;;;;14.45;100.00;101311.19;5048379;28;20045;-52
2023/05/09 05:59:16;;;;;;;42.30;25.52;;;;;;;14.49;100.00;101316.16;5052106;28;20083;-55
2023/05/09 06:01:44;;;;;;;46.35;26.90;;;;;;;14.53;100.00;101312.34;5049689;28;20098;-52
2023/05/09 06:04:12;;;;;;;46.85;26.95;;;;;;;14.63;100.00;101309.00;5048956;28;20381;-54
2023/05/09 06:06:40;;;;;;;42.25;25.30;;;;;;;14.61;100.00;101309.09;5048816;28;20044;-52
2023/05/09 06:09:08;;;;;;;43.90;27.17;;;;;;;14.61;100.00;101298.50;5048283;28;20136;-62
2023/05/09 06:11:41;;;;;;;41.30;26.08;;;;;;;14.70;100.00;101297.03;5049008;28;20049;-51
2023/05/09 06:14:09;;;;;;;42.72;25.02;;;;;;;14.74;100.00;101294.97;5048921;28;20053;-54
2023/05/09 06:16:37;;;;;;;39.25;24.63;;;;;;;14.73;100.00;101293.31;5048031;28;20036;-54
2023/05/09 06:19:05;;;;;;;41.80;24.33;;;;;;;14.69;100.00;101285.56;5050334;28;20049;-62
2023/05/09 06:21:34;;;;;;;38.17;23.00;;;;;;;14.66;100.00;101284.97;5052402;28;20515;-62
2023/05/09 06:24:02;;;;;;;35.60;23.13;;;;;;;14.70;100.00;101284.63;5050001;28;20053;-62
2023/05/09 06:26:44;;;;;;;38.45;23.88;;;;;;;14.73;100.00;101285.38;5047798;28;20052;-63
2023/05/09 06:29:14;;;;;;;33.50;22.60;;;;;;;14.85;100.00;101277.31;5050487;28;20080;-62
2023/05/09 06:31:42;;;;;;;34.13;21.55;;;;;;;14.82;100.00;101279.34;5047972;28;20385;-52
2023/05/09 06:34:10;;;;;;;34.92;22.23;;;;;;;14.89;100.00;101275.28;5050308;28;20476;-54
2023/05/09 06:36:38;;;;;;;33.88;22.67;;;;;;;14.90;100.00;101271.66;5052488;28;20480;-56
2023/05/09 06:39:09;;;;;;;33.35;23.23;;;;;;;15.01;100.00;101263.75;5049146;28;20045;-56
2023/05/09 06:41:37;;;;;;;33.97;22.90;;;;;;;15.07;100.00;101267.72;5047416;28;20040;-55
2023/05/09 06:44:10;;;;;;;28.83;20.13;;;;;;;15.08;100.00;101261.47;5049422;28;20111;-54
2023/05/09 06:46:38;;;;;;;31.88;21.08;;;;;;;15.13;100.00;101266.41;5052285;28;20037;-55
2023/05/09 06:49:06;;;;;;;29.65;20.67;;;;;;;15.18;100.00;101262.41;5051390;28;20059;-55
2023/05/09 06:51:35;;;;;;;30.25;20.23;;;;;;;15.35;100.00;101252.31;5052288;28;20095;-55
2023/05/09 06:54:03;;;;;;;33.88;21.65;;;;;;;15.30;100.00;101251.84;5052084;28;20057;-55
2023/05/09 06:56:31;;;;;;;31.83;20.05;;;;;;;15.34;100.00;101250.63;5048286;28;20045;-55
2023/05/09 06:58:59;;;;;;;29.42;19.83;;;;;;;15.42;100.00;101247.38;5049822;28;20037;-54
2023/05/09 07:01:29;;;;;;;28.83;19.13;;;;;;;15.57;100.00;101240.00;5052242;28;20041;-54
2023/05/09 07:03:58;;;;;;;29.17;20.33;;;;;;;15.64;100.00;101241.22;5052110;28;20045;-55
2023/05/09 07:06:26;;;;;;;26.17;18.75;;;;;;;15.69;100.00;101231.91;5051967;28;20110;-55
2023/05/09 07:08:54;;;;;;;27.60;19.65;;;;;;;15.67;100.00;101233.84;5052288;28;20500;-55
2023/05/09 07:11:22;;;;;;;27.38;19.13;;;;;;;15.79;100.00;101233.81;5050500;28;20056;-62
2023/05/09 07:13:50;;;;;;;26.00;19.17;;;;;;;15.96;100.00;101233.31;5047975;28;20496;-55
2023/05/09 07:16:21;;;;;;;28.67;18.58;;;;;;;15.96;100.00;101225.34;5047834;28;20044;-56
2023/05/09 07:18:51;;;;;;;26.83;18.83;;;;;;;16.11;100.00;101219.75;5047009;28;20503;-55
2023/05/09 07:21:19;;;;;;;25.27;18.65;;;;;;;16.17;100.00;101225.41;5047199;28;20094;-55
2023/05/09 07:23:47;;;;;;;22.05;17.70;;;;;;;16.20;100.00;101219.84;5046396;28;20052;-54
2023/05/09 07:26:15;;;;;;;26.35;17.55;;;;;;;16.27;100.00;101217.50;5048930;28;20076;-55
2023/05/09 07:28:43;;;;;;;20.73;16.70;;;;;;;16.32;100.00;101223.28;5050744;28;20110;-55
2023/05/09 07:31:11;;;;;;;24.65;18.70;;;;;;;16.32;100.00;101215.31;5052199;28;20076;-55
2023/05/09 07:33:39;;;;;;;23.73;17.50;;;;;;;16.41;100.00;101216.34;5051964;28;20045;-55
2023/05/09 07:36:11;;;;;;;21.55;17.02;;;;;;;16.55;100.00;101207.22;5051860;28;20056;-62
2023/05/09 07:38:40;;;;;;;23.45;16.92;;;;;;;16.53;100.00;101206.53;5050461;28;20087;-61
2023/05/09 07:41:08;;;;;;;25.67;18.25;;;;;;;16.65;100.00;101207.31;5047706;28;20228;-61
2023/05/09 07:43:36;;;;;;;24.15;18.20;;;;;;;16.63;100.00;101196.78;5047789;28;20528;-61
2023/05/09 07:46:04;;;;;;;25.73;17.52;;;;;;;16.68;100.00;101199.06;5047026;28;20049;-61
2023/05/09 07:48:32;;;;;;;24.77;17.65;;;;;;;16.83;100.00;101197.75;5050881;28;20067;-61
2023/05/09 07:51:00;;;;;;;24.83;17.13;;;;;;;16.92;100.00;101193.50;5046875;28;20458;-62
2023/05/09 07:53:30;;;;;;;24.33;18.00;;;;;;;16.83;100.00;101194.25;5049863;28;20048;-63
2023/05/09 07:55:58;;;;;;;23.90;17.15;;;;;;;16.84;100.00;101195.94;5051680;28;20045;-63
2023/05/09 07:58:26;;;;;;;25.00;17.45;;;;;;;16.90;100.00;101187.47;5048331;28;20048;-63
2023/05/09 08:00:56;;;;;;;22.63;16.88;;;;;;;16.83;100.00;101181.81;5047630;28;20503;-63
2023/05/09 08:03:24;;;;;;;24.00;16.98;;;;;;;16.95;100.00;101177.28;5050745;28;20115;-63
2023/05/09 08:05:54;;;;;;;23.27;17.08;;;;;;;17.09;100.00;101172.59;5045344;28;20048;-63
2023/05/09 08:08:22;;;;;;;22.27;16.92;;;;;;;17.02;100.00;101166.97;5047433;28;20060;-63
2023/05/09 08:10:52;;;;;;;21.42;15.70;;;;;;;17.27;100.00;101170.13;5046863;28;20049;-63
2023/05/09 08:13:21;;;;;;;22.38;15.77;;;;;;;17.36;100.00;101169.31;5047985;28;20676;-62
2023/05/09 08:15:49;;;;;;;21.55;15.68;;;;;;;17.40;100.00;101162.75;5051579;28;20123;-63
2023/05/09 08:18:17;;;;;;;20.83;14.90;;;;;;;17.34;100.00;101166.78;5051637;28;20403;-62
2023/05/09 08:20:45;;;;;;;20.40;15.63;;;;;;;17.60;100.00;101157.44;5051348;28;20072;-63
2023/05/09 08:23:13;;;;;;;19.85;15.07;;;;;;;17.50;100.00;101160.09;5050128;28;20053;-63
2023/05/09 08:25:41;;;;;;;20.88;15.45;;;;;;;17.64;100.00;101157.03;5051483;28;20496;-63
2023/05/09 08:28:11;;;;;;;19.33;15.35;;;;;;;17.56;100.00;101148.88;5051625;28;20044;-63
2023/05/09 08:30:39;;;;;;;20.73;14.57;;;;;;;17.35;100.00;101147.19;5053268;28;20048;-62
2023/05/09 08:33:07;;;;;;;21.40;14.35;;;;;;;17.53;100.00;101146.50;5051176;28;20053;-63
2023/05/09 08:35:35;;;;;;;19.05;15.15;;;;;;;17.67;100.00;101146.13;5049975;28;20060;-63
2023/05/09 08:38:03;;;;;;;20.30;14.65;;;;;;;17.61;100.00;101148.50;5050477;28;20056;-63
2023/05/09 08:40:36;;;;;;;20.23;15.07;;;;;;;17.83;100.00;101145.56;5054949;28;20048;-63
2023/05/09 08:43:06;;;;;;;20.52;14.77;;;;;;;17.86;100.00;101139.97;5054896;28;20052;-63
2023/05/09 08:45:44;;;;;;;17.75;14.13;;;;;;;17.79;100.00;101140.66;5054854;28;20431;-63
2023/05/09 08:48:13;;;;;;;22.45;14.20;;;;;;;17.93;100.00;101134.94;5055357;28;20099;-63
2023/05/09 08:50:42;;;;;;;19.80;13.48;;;;;;;17.82;100.00;101125.25;5054753;28;20053;-64
2023/05/09 08:53:14;;;;;;;17.13;12.43;;;;;;;17.90;100.00;101127.19;5049891;28;20174;-63
2023/05/09 08:55:42;;;;;;;19.10;14.38;;;;;;;17.77;100.00;101124.00;5051464;28;20049;-63
2023/05/09 08:58:10;;;;;;;19.95;14.20;;;;;;;17.76;100.00;101111.69;5054635;28;20458;-63
2023/05/09 09:00:43;;;;;;;17.63;14.02;;;;;;;17.87;100.00;101125.69;5054342;28;20076;-63
2023/05/09 09:03:14;;;;;;;19.77;13.82;;;;;;;17.77;100.00;101121.34;5054609;28;20049;-63
2023/05/09 09:05:43;;;;;;;20.40;14.18;;;;;;;17.73;100.00;101113.63;5053100;28;20095;-64
2023/05/09 09:08:11;;;;;;;20.08;14.88;;;;;;;17.86;100.00;101118.69;5054316;28;20033;-63
2023/05/09 09:10:45;;;;;;;17.73;13.75;;;;;;;17.95;100.00;101111.69;5054228;28;20135;-63
2023/05/09 09:13:16;;;;;;;18.75;14.35;;;;;;;17.95;100.00;101108.19;5054297;28;20045;-63
2023/05/09 09:15:48;;;;;;;19.48;13.73;;;;;;;17.92;100.00;101108.50;5054110;28;20053;-63
2023/05/09 09:18:20;;;;;;;17.67;13.65;;;;;;;17.93;100.00;101111.00;5054280;28;20127;-63
2023/05/09 09:20:53;;;;;;;21.60;14.45;;;;;;;17.86;100.00;101115.16;5054006;28;20060;-64
2023/05/09 09:23:24;;;;;;;16.65;12.90;;;;;;;17.90;100.00;101112.09;5054231;28;20393;-63
2023/05/09 09:25:58;;;;;;;19.17;13.93;;;;;;;17.97;100.00;101101.75;5054815;28;20523;-56
2023/05/09 09:28:27;;;;;;;16.38;13.43;;;;;;;17.90;100.00;101103.25;5050400;28;20527;-57
2023/05/09 09:30:57;;;;;;;19.80;14.18;;;;;;;17.89;100.00;101098.94;5049727;28;20051;-56
2023/05/09 09:33:26;;;;;;;17.70;14.02;;;;;;;17.82;100.00;101100.47;5051600;28;20045;-56
2023/05/09 09:35:56;;;;;;;22.00;14.45;;;;;;;17.76;100.00;101085.09;5051123;28;20052;-56
2023/05/09 09:38:25;;;;;;;19.98;14.75;;;;;;;17.65;100.00;101096.72;5049744;28;20044;-56
2023/05/09 09:40:54;;;;;;;18.73;13.80;;;;;;;17.71;100.00;101097.00;5052339;28;20047;-56
2023/05/09 09:43:27;;;;;;;19.00;13.48;;;;;;;17.75;100.00;101092.22;5053177;28;20041;-56
2023/05/09 09:46:00;;;;;;;18.35;13.23;;;;;;;17.74;100.00;101088.72;5053395;28;20730;-54
2023/05/09 09:48:32;;;;;;;15.75;11.48;;;;;;;17.84;100.00;101086.03;5052980;28;20396;-56
2023/05/09 09:51:08;;;;;;;19.20;11.95;;;;;;;17.95;100.00;101089.56;5049350;28;20048;-55
2023/05/09 09:53:39;;;;;;;14.43;11.45;;;;;;;17.83;100.00;101081.72;5050707;28;20409;-56
2023/05/09 09:56:07;;;;;;;15.35;10.63;;;;;;;17.95;100.00;101082.44;5053371;28;20504;-56
2023/05/09 09:58:44;;;;;;;15.98;10.07;;;;;;;18.09;100.00;101075.81;5053612;28;20044;-56
2023/05/09 10:01:15;;;;;;;15.43;9.63;;;;;;;18.22;100.00;101080.84;5053401;28;20045;-56
2023/05/09 10:03:45;;;;;;;15.23;9.45;;;;;;;18.35;100.00;101073.38;5050118;28;20044;-56
2023/05/09 10:06:15;;;;;;;13.27;8.88;;;;;;;18.50;100.00;101078.22;5048405;28;20049;-56
2023/05/09 10:08:46;;;;;;;13.45;9.13;;;;;;;18.62;100.00;101079.69;5050368;28;20516;-57
2023/05/09 10:11:15;;;;;;;15.30;9.32;;;;;;;18.62;100.00;101077.03;5053047;28;20067;-57
2023/05/09 10:13:44;;;;;;;13.00;8.93;;;;;;;18.68;100.00;101075.59;5053066;28;20044;-57
2023/05/09 10:16:14;;;;;;;14.00;9.27;;;;;;;18.62;100.00;101071.72;5048825;28;20053;-57
2023/05/09 10:18:43;;;;;;;13.40;9.20;;;;;;;18.68;100.00;101073.81;5048840;28;20067;-56
2023/05/09 10:21:15;;;;;;;12.57;8.45;;;;;;;18.72;100.00;101067.19;5047588;28;20136;-57
2023/05/09 10:23:51;;;;;;;11.23;8.40;;;;;;;18.86;100.00;101063.19;5049036;28;20063;-57
2023/05/09 10:26:26;;;;;;;11.77;8.73;;;;;;;18.97;100.00;101061.34;5052384;28;20045;-57
2023/05/09 10:28:57;;;;;;;12.50;8.38;;;;;;;19.03;100.00;101056.25;5052562;28;20080;-57
2023/05/09 10:31:28;;;;;;;12.23;8.75;;;;;;;18.99;100.00;101054.88;5052569;28;20134;-57
2023/05/09 10:33:57;;;;;;;11.60;8.27;;;;;;;18.94;100.00;101049.16;5052929;28;20389;-57
2023/05/09 10:36:28;;;;;;;13.68;7.88;;;;;;;19.09;100.00;101036.97;5052674;28;20119;-57
2023/05/09 10:38:56;;;;;;;10.13;6.90;;;;;;;19.09;100.00;101042.31;5052659;28;20041;-56
2023/05/09 10:41:27;;;;;;;9.13;6.50;;;;;;;19.13;100.00;101031.34;5052461;28;20043;-57
2023/05/09 10:43:56;;;;;;;11.52;7.07;;;;;;;19.12;100.00;101038.50;5052578;28;20114;-57
2023/05/09 10:46:27;;;;;;;10.55;6.13;;;;;;;19.11;100.00;101034.16;5052657;28;20041;-58
2023/05/09 10:48:56;;;;;;;9.57;6.00;;;;;;;19.23;100.00;101026.78;5052497;28;20377;-57
2023/05/09 10:51:24;;;;;;;10.13;6.10;;;;;;;19.06;100.00;101029.31;5052335;28;20091;-57
2023/05/09 10:53:54;;;;;;;10.30;5.80;;;;;;;19.15;100.00;101024.06;5052439;28;20052;-57
2023/05/09 10:56:25;;;;;;;9.43;6.15;;;;;;;18.76;100.00;101022.47;5052105;28;20053;-57
2023/05/09 10:58:54;;;;;;;10.10;6.18;;;;;;;18.78;100.00;101028.47;5052334;28;20476;-57
2023/05/09 11:01:33;;;;;;;9.85;6.20;;;;;;;18.55;100.00;101030.69;5052089;28;20044;-56
2023/05/09 11:04:08;;;;;;;13.57;6.85;;;;;;;18.48;100.00;101024.28;5050603;28;20049;-59
2023/05/09 11:06:46;;;;;;;12.45;6.43;;;;;;;18.68;100.00;101025.00;5052142;28;20049;-57
2023/05/09 11:09:32;;;;;;;9.85;6.80;;;;;;;18.47;100.00;101019.94;5050960;28;20054;-57
2023/05/09 11:12:08;;;;;;;11.05;7.13;;;;;;;18.50;100.00;101016.97;5051889;28;20049;-56
2023/05/09 11:14:43;;;;;;;10.18;7.55;;;;;;;18.39;100.00;101013.53;5047570;28;20396;-55